Time;durP1;ratioP1;P1;durP2;ratioP2;P2;SDS_P1;SDS_P2;PMS_P1;PMS_P2;Temp;Humidity;BMP_temperature;BMP_pressure;BME280_temperature;BME280_humidity;BME280_pressure;Samples;Min_cycle;Max_cycle;Signal;HPM_P1;HPM_P2
2022/05/08 00:00:58;;;;;;;68.38;42.25;;;13.40;99.90;;;;;;4995889;28;20029;-54
2022/05/08 00:03:24;;;;;;;73.82;43.13;;;13.40;99.90;;;;;;4995928;28;20042;-54
2022/05/08 00:05:50;;;;;;;72.75;42.85;;;13.50;99.90;;;;;;4995966;28;20026;-54
2022/05/08 00:08:18;;;;;;;94.80;47.50;;;13.50;99.90;;;;;;4995918;28;20034;-54
2022/05/08 00:10:44;;;;;;;108.10;54.28;;;13.50;99.90;;;;;;4995903;28;20429;-54
2022/05/08 00:13:10;;;;;;;123.35;55.58;;;13.50;99.90;;;;;;4995757;28;20026;-54
2022/05/08 00:15:37;;;;;;;140.27;60.25;;;13.50;99.90;;;;;;4995954;28;20089;-54
2022/05/08 00:18:03;;;;;;;149.55;67.38;;;13.50;99.90;;;;;;4995643;28;20444;-54
2022/05/08 00:20:29;;;;;;;133.25;57.20;;;13.50;99.90;;;;;;4995644;28;20049;-54
2022/05/08 00:22:56;;;;;;;126.80;58.63;;;13.60;99.90;;;;;;4995755;28;20172;-52
2022/05/08 00:25:22;;;;;;;126.90;56.03;;;13.50;99.90;;;;;;4995535;28;20034;-52
2022/05/08 00:27:48;;;;;;;132.07;58.50;;;13.50;99.90;;;;;;4995622;28;20026;-52
2022/05/08 00:30:14;;;;;;;127.15;61.22;;;13.50;99.90;;;;;;4995628;28;20031;-52
2022/05/08 00:32:40;;;;;;;119.15;57.92;;;13.50;99.90;;;;;;4995556;28;20385;-52
2022/05/08 00:35:09;;;;;;;131.73;56.90;;;13.60;99.90;;;;;;4995491;28;20022;-52
2022/05/08 00:37:37;;;;;;;116.65;52.97;;;13.50;99.90;;;;;;4995535;28;20030;-52
2022/05/08 00:40:03;;;;;;;112.78;52.60;;;13.50;99.90;;;;;;4995482;28;20080;-52
2022/05/08 00:42:29;;;;;;;104.22;51.25;;;13.60;99.90;;;;;;4995416;28;20022;-52
2022/05/08 00:44:55;;;;;;;126.60;53.80;;;13.50;99.90;;;;;;4995457;28;20595;-52
2022/05/08 00:47:21;;;;;;;167.13;61.13;;;13.60;99.90;;;;;;4995376;28;20030;-52
2022/05/08 00:49:48;;;;;;;166.55;62.97;;;13.60;99.90;;;;;;4995252;28;20380;-52
2022/05/08 00:52:16;;;;;;;130.48;55.03;;;13.60;99.90;;;;;;4995376;28;20034;-52
2022/05/08 00:54:43;;;;;;;114.03;51.58;;;13.60;99.90;;;;;;4995085;28;20595;-52
2022/05/08 00:57:13;;;;;;;103.50;50.17;;;13.60;99.90;;;;;;4995156;28;20030;-52
2022/05/08 00:59:39;;;;;;;80.13;42.83;;;13.60;99.90;;;;;;4995354;28;20490;-52
2022/05/08 01:02:06;;;;;;;77.53;39.90;;;13.60;99.90;;;;;;4995079;28;20040;-52
2022/05/08 01:04:32;;;;;;;91.55;44.28;;;13.50;99.90;;;;;;4995101;28;20061;-52
2022/05/08 01:06:58;;;;;;;81.65;41.95;;;13.50;99.90;;;;;;4994907;28;20034;-52
2022/05/08 01:09:24;;;;;;;89.32;45.15;;;13.50;99.90;;;;;;4994888;28;20042;-52
2022/05/08 01:11:50;;;;;;;103.00;50.85;;;13.40;99.90;;;;;;4995015;28;20057;-52
2022/05/08 01:14:17;;;;;;;102.82;50.83;;;13.40;99.90;;;;;;4995177;28;20080;-52
2022/05/08 01:16:43;;;;;;;100.05;50.22;;;13.40;99.90;;;;;;4994942;28;20034;-52
2022/05/08 01:19:09;;;;;;;111.68;52.85;;;13.30;99.90;;;;;;4994910;28;20134;-52
2022/05/08 01:21:41;;;;;;;113.38;53.25;;;13.30;99.90;;;;;;4994855;28;20030;-52
2022/05/08 01:24:14;;;;;;;109.78;55.00;;;13.30;99.90;;;;;;4994993;28;20109;-52
2022/05/08 01:26:40;;;;;;;107.38;52.38;;;13.20;99.90;;;;;;4994903;28;20038;-52
2022/05/08 01:29:06;;;;;;;111.15;50.85;;;13.20;99.90;;;;;;4995095;28;20476;-52
2022/05/08 01:31:32;;;;;;;99.93;51.17;;;13.20;99.90;;;;;;4994751;28;20101;-52
2022/05/08 01:33:59;;;;;;;101.32;49.67;;;13.20;99.90;;;;;;4994928;28;20117;-52
2022/05/08 01:36:25;;;;;;;108.13;50.63;;;13.20;99.90;;;;;;4994976;28;20033;-52
2022/05/08 01:38:51;;;;;;;105.32;51.05;;;13.10;99.90;;;;;;4994951;28;20113;-52
2022/05/08 01:41:17;;;;;;;106.13;50.50;;;13.10;99.90;;;;;;4994924;28;20065;-52
2022/05/08 01:43:43;;;;;;;104.88;51.53;;;13.10;99.90;;;;;;4994711;28;20035;-52
2022/05/08 01:46:10;;;;;;;88.45;44.50;;;13.10;99.90;;;;;;4994676;28;20043;-52
2022/05/08 01:48:37;;;;;;;89.90;45.40;;;13.10;99.90;;;;;;4994897;28;20077;-52
2022/05/08 01:51:04;;;;;;;99.85;48.47;;;13.20;99.90;;;;;;4994699;28;20093;-52
2022/05/08 01:53:32;;;;;;;109.40;50.83;;;13.10;99.90;;;;;;4994730;28;20110;-52
2022/05/08 01:55:58;;;;;;;98.40;48.05;;;13.10;99.90;;;;;;4994699;28;20061;-52
2022/05/08 01:58:26;;;;;;;93.88;46.58;;;13.20;99.90;;;;;;4994539;28;20034;-52
2022/05/08 02:00:53;;;;;;;94.85;48.17;;;13.10;99.90;;;;;;4994512;28;20030;-52
2022/05/08 02:03:22;;;;;;;100.65;46.85;;;13.10;99.90;;;;;;4994684;28;20053;-52
2022/05/08 02:05:48;;;;;;;90.20;43.63;;;13.10;99.90;;;;;;4977078;28;20042;-52
2022/05/08 02:08:15;;;;;;;73.75;39.92;;;13.10;99.90;;;;;;4994436;28;20035;-52
2022/05/08 02:10:44;;;;;;;69.97;38.90;;;13.10;99.90;;;;;;4996873;28;20121;-52
2022/05/08 02:13:12;;;;;;;74.28;41.28;;;13.10;99.90;;;;;;4998176;28;20070;-52
2022/05/08 02:15:38;;;;;;;71.05;38.42;;;13.00;99.90;;;;;;4998094;28;20113;-52
2022/05/08 02:18:09;;;;;;;73.95;39.17;;;13.00;99.90;;;;;;4997899;28;20404;-52
2022/05/08 02:20:36;;;;;;;69.90;37.33;;;12.90;99.90;;;;;;4998017;28;20038;-52
2022/05/08 02:23:03;;;;;;;71.90;37.97;;;13.00;99.90;;;;;;4997995;28;20031;-52
2022/05/08 02:25:30;;;;;;;72.43;39.00;;;13.00;99.90;;;;;;4997948;28;20031;-52
2022/05/08 02:27:57;;;;;;;74.70;40.67;;;13.00;99.90;;;;;;4997815;28;20104;-52
2022/05/08 02:30:25;;;;;;;76.18;39.42;;;13.00;99.90;;;;;;4997701;28;20026;-52
2022/05/08 02:32:52;;;;;;;70.10;39.42;;;13.00;99.90;;;;;;4998033;28;20408;-52
2022/05/08 02:35:23;;;;;;;73.70;41.08;;;13.00;99.90;;;;;;4997838;28;20045;-52
2022/05/08 02:37:52;;;;;;;72.40;41.05;;;13.00;99.90;;;;;;4997874;28;20023;-52
2022/05/08 02:40:18;;;;;;;69.32;39.30;;;13.00;99.90;;;;;;4997795;28;20041;-52
2022/05/08 02:42:44;;;;;;;76.22;38.83;;;13.00;99.90;;;;;;4997589;28;20440;-52
2022/05/08 02:45:11;;;;;;;79.20;40.38;;;13.00;99.90;;;;;;4997453;28;20030;-52
2022/05/08 02:47:41;;;;;;;71.93;38.47;;;13.00;99.90;;;;;;4997678;28;20165;-52
2022/05/08 02:50:12;;;;;;;81.85;40.35;;;13.00;99.90;;;;;;4997456;28;20036;-52
2022/05/08 02:52:42;;;;;;;77.05;39.55;;;13.00;99.90;;;;;;4997482;28;20022;-52
2022/05/08 03:00:42;;;;;;;79.70;39.63;;;13.00;99.90;;;;;;4997171;28;20038;-52
2022/05/08 03:03:10;;;;;;;79.97;39.90;;;13.00;99.90;;;;;;4997189;28;20388;-52
2022/05/08 03:05:36;;;;;;;81.25;41.88;;;13.00;99.90;;;;;;4997142;28;20026;-52
2022/05/08 03:08:05;;;;;;;92.50;42.95;;;13.00;99.90;;;;;;4996837;28;20033;-52
2022/05/08 03:11:25;;;;;;;102.57;43.47;;;12.90;99.90;;;;;;4997172;28;20022;-52
2022/05/08 03:13:17;;;;;;;94.25;42.55;;;12.90;99.90;;;;;;4996970;28;20034;-52
2022/05/08 03:15:43;;;;;;;109.50;45.85;;;12.90;99.90;;;;;;4997054;28;20073;-52
2022/05/08 03:18:09;;;;;;;103.50;44.97;;;13.00;99.90;;;;;;4996772;28;20081;-52
2022/05/08 03:20:36;;;;;;;115.50;46.67;;;12.90;99.90;;;;;;4996354;28;20392;-52
2022/05/08 03:23:01;;;;;;;109.97;47.58;;;12.90;99.90;;;;;;4996334;28;20037;-52
2022/05/08 03:25:27;;;;;;;106.78;46.38;;;12.90;99.90;;;;;;4996738;28;20479;-52
2022/05/08 03:27:54;;;;;;;116.22;45.40;;;12.90;99.90;;;;;;4996855;28;20026;-52
2022/05/08 03:30:20;;;;;;;101.00;44.22;;;12.90;99.90;;;;;;4996544;28;20022;-52
2022/05/08 03:32:46;;;;;;;110.85;44.53;;;12.90;99.90;;;;;;4996713;28;20462;-52
2022/05/08 03:35:12;;;;;;;107.10;43.65;;;12.90;99.90;;;;;;4996583;28;20031;-52
2022/05/08 03:37:38;;;;;;;117.00;43.67;;;12.90;99.90;;;;;;4996518;28;20053;-52
2022/05/08 03:40:05;;;;;;;116.78;45.35;;;12.90;99.90;;;;;;4996583;28;20026;-52
2022/05/08 03:42:31;;;;;;;115.80;45.13;;;12.80;99.90;;;;;;4996457;28;20472;-52
2022/05/08 03:44:57;;;;;;;119.93;46.67;;;12.80;99.90;;;;;;4996614;28;20033;-52
2022/05/08 03:47:23;;;;;;;103.45;42.75;;;12.80;99.90;;;;;;4996227;28;20034;-52
2022/05/08 03:49:49;;;;;;;100.38;42.65;;;12.90;99.90;;;;;;4996432;28;20098;-52
2022/05/08 03:52:15;;;;;;;101.85;43.92;;;12.90;99.90;;;;;;4996199;28;20105;-51
2022/05/08 03:54:41;;;;;;;104.13;42.10;;;12.80;99.90;;;;;;4996145;28;20025;-52
2022/05/08 03:57:07;;;;;;;122.40;43.17;;;12.80;99.90;;;;;;4996119;28;20038;-52
2022/05/08 03:59:33;;;;;;;111.55;42.72;;;12.80;99.90;;;;;;4996329;28;20114;-52
2022/05/08 04:01:59;;;;;;;101.75;39.53;;;12.90;99.90;;;;;;4996046;28;20026;-53
2022/05/08 04:04:25;;;;;;;118.28;42.30;;;12.90;99.90;;;;;;4995985;28;20038;-52
2022/05/08 04:06:51;;;;;;;131.07;41.42;;;12.80;99.90;;;;;;4995931;28;20030;-52
2022/05/08 04:09:17;;;;;;;116.10;41.42;;;12.70;99.90;;;;;;4995827;28;20030;-52
2022/05/08 04:11:42;;;;;;;113.53;41.75;;;12.70;99.90;;;;;;4996250;28;20361;-52
2022/05/08 04:14:08;;;;;;;102.97;40.17;;;12.70;99.90;;;;;;4978336;28;20437;-52
2022/05/08 04:16:35;;;;;;;95.88;38.78;;;12.80;99.90;;;;;;4995702;28;20042;-52
2022/05/08 04:19:01;;;;;;;107.50;41.15;;;12.80;99.90;;;;;;4995736;28;20070;-52
2022/05/08 04:21:27;;;;;;;113.90;43.22;;;12.80;99.90;;;;;;4995745;28;20472;-52
2022/05/08 04:26:38;;;;;;;100.97;40.15;;;12.90;99.90;;;;;;4995533;28;20054;-52
2022/05/08 04:29:04;;;;;;;103.03;39.88;;;12.90;99.90;;;;;;4995663;28;20030;-52
2022/05/08 04:31:31;;;;;;;114.93;42.53;;;12.90;99.90;;;;;;4995588;28;20233;-52
2022/05/08 04:33:57;;;;;;;95.93;39.42;;;12.90;99.90;;;;;;4995228;28;20022;-52
2022/05/08 04:36:23;;;;;;;92.47;39.05;;;12.90;99.90;;;;;;4995535;28;20076;-52
2022/05/08 04:38:49;;;;;;;94.50;39.60;;;12.90;99.90;;;;;;4995428;28;20042;-52
2022/05/08 04:41:15;;;;;;;95.30;37.25;;;12.90;99.90;;;;;;4995456;28;20080;-52
2022/05/08 04:43:42;;;;;;;96.90;38.70;;;13.00;99.90;;;;;;4995215;28;20034;-52
2022/05/08 04:46:09;;;;;;;108.55;39.45;;;13.00;99.90;;;;;;4995287;28;20034;-52
2022/05/08 04:48:35;;;;;;;94.13;38.30;;;13.00;99.90;;;;;;4995422;28;20030;-52
2022/05/08 04:51:01;;;;;;;101.22;40.30;;;13.00;99.90;;;;;;4995364;28;20073;-52
2022/05/08 04:53:27;;;;;;;102.75;41.05;;;13.00;99.90;;;;;;4995294;28;20427;-52
2022/05/08 04:55:53;;;;;;;95.22;40.10;;;13.10;99.90;;;;;;4995202;28;20058;-53
2022/05/08 04:58:19;;;;;;;108.38;41.25;;;13.10;99.90;;;;;;4995291;28;20065;-52
2022/05/08 05:00:45;;;;;;;124.53;44.47;;;13.10;99.90;;;;;;4995297;28;20066;-52
2022/05/08 05:03:11;;;;;;;128.43;43.95;;;13.10;99.90;;;;;;4995232;28;20038;-52
2022/05/08 05:19:37;;;;;;;169.25;51.13;;;13.00;99.90;;;;;;5091630;28;20386;-57
2022/05/08 05:22:03;;;;;;;131.30;46.97;;;13.10;99.90;;;;;;5090376;28;20074;-57
2022/05/08 05:24:30;;;;;;;122.03;46.47;;;13.10;99.90;;;;;;5091272;28;20040;-58
2022/05/08 05:26:56;;;;;;;98.25;41.92;;;13.10;99.90;;;;;;5091281;28;20016;-57
2022/05/08 05:29:22;;;;;;;113.13;45.80;;;13.00;99.90;;;;;;5091086;28;20024;-57
2022/05/08 05:31:48;;;;;;;114.90;45.22;;;13.00;99.90;;;;;;5091201;28;20043;-57
2022/05/08 05:34:14;;;;;;;121.45;46.00;;;13.00;99.90;;;;;;5090977;28;20032;-57
2022/05/08 05:36:40;;;;;;;127.10;46.60;;;13.20;99.90;;;;;;5091138;28;20024;-57
2022/05/08 05:39:06;;;;;;;109.32;43.80;;;13.20;99.90;;;;;;5091055;28;20024;-57
2022/05/08 05:41:33;;;;;;;116.45;49.88;;;13.20;99.90;;;;;;5091531;28;20035;-58
2022/05/08 05:44:03;;;;;;;107.03;49.40;;;13.20;99.90;;;;;;5091400;28;20036;-57
2022/05/08 05:49:16;;;;;;;99.80;40.55;;;13.30;99.90;;;;;;5091412;28;20044;-58
2022/05/08 05:51:42;;;;;;;80.90;36.80;;;13.40;99.90;;;;;;5091379;28;20035;-57
2022/05/08 05:54:08;;;;;;;94.88;39.50;;;13.40;99.90;;;;;;5091209;28;20032;-58
2022/05/08 05:56:34;;;;;;;76.82;35.88;;;13.40;99.90;;;;;;5091254;28;20028;-57
2022/05/08 05:59:00;;;;;;;85.55;38.35;;;13.30;99.90;;;;;;5091140;28;20027;-58
2022/05/08 06:01:26;;;;;;;86.82;38.88;;;13.40;99.90;;;;;;5091185;28;20024;-57
2022/05/08 06:03:51;;;;;;;95.78;40.33;;;13.30;99.90;;;;;;5091108;28;20028;-58
2022/05/08 06:06:17;;;;;;;95.53;42.20;;;13.40;99.90;;;;;;5091122;28;20020;-58
2022/05/08 06:08:43;;;;;;;97.05;41.25;;;13.50;99.90;;;;;;5090914;28;20366;-58
2022/05/08 06:11:09;;;;;;;106.63;43.92;;;13.60;99.90;;;;;;5091012;28;20035;-58
2022/05/08 06:13:35;;;;;;;110.70;44.33;;;13.50;99.90;;;;;;5090863;28;20058;-58
2022/05/08 06:16:01;;;;;;;100.72;41.45;;;13.60;99.90;;;;;;5090989;28;20024;-57
2022/05/08 06:18:27;;;;;;;91.90;40.38;;;13.60;99.90;;;;;;5089463;28;20063;-58
2022/05/08 06:20:54;;;;;;;99.38;41.85;;;13.60;99.90;;;;;;5076896;28;20032;-58
2022/05/08 06:23:20;;;;;;;100.60;42.03;;;13.70;99.90;;;;;;5077335;28;20058;-58
2022/05/08 06:25:47;;;;;;;103.63;41.75;;;13.80;99.90;;;;;;5077602;28;20081;-58
2022/05/08 06:28:19;;;;;;;93.15;42.28;;;13.90;99.90;;;;;;5076969;28;20074;-58
2022/05/08 06:30:46;;;;;;;94.93;43.20;;;13.90;99.90;;;;;;5077163;28;20028;-58
2022/05/08 06:33:12;;;;;;;90.28;43.03;;;14.00;99.90;;;;;;5077007;28;20028;-58
2022/05/08 06:35:39;;;;;;;104.80;44.65;;;14.00;99.90;;;;;;5076914;28;20020;-58
2022/05/08 06:38:06;;;;;;;102.53;44.92;;;14.10;99.90;;;;;;5077039;28;20500;-58
2022/05/08 06:40:32;;;;;;;104.25;44.97;;;14.10;99.90;;;;;;5076864;28;20043;-58
2022/05/08 06:42:58;;;;;;;102.18;42.65;;;14.00;99.90;;;;;;5076981;28;20032;-58
2022/05/08 06:45:24;;;;;;;108.45;44.38;;;14.00;99.90;;;;;;5076864;28;20031;-58
2022/05/08 06:47:51;;;;;;;103.75;46.47;;;14.10;99.90;;;;;;5076787;28;20031;-58
2022/05/08 06:50:18;;;;;;;96.30;42.17;;;14.10;99.90;;;;;;5076880;28;20107;-58
2022/05/08 06:52:45;;;;;;;97.38;43.10;;;14.20;99.90;;;;;;5076798;28;20025;-58
2022/05/08 06:55:11;;;;;;;96.30;43.50;;;14.20;99.90;;;;;;5076561;28;20031;-58
2022/05/08 06:57:36;;;;;;;87.18;41.92;;;14.20;99.90;;;;;;5076699;28;20032;-58
2022/05/08 07:02:48;;;;;;;96.90;43.97;;;14.20;99.90;;;;;;5076554;28;20028;-58
2022/05/08 07:05:14;;;;;;;85.80;40.35;;;14.20;99.90;;;;;;5076575;28;20530;-58
2022/05/08 07:07:40;;;;;;;91.32;42.63;;;14.10;99.90;;;;;;5076324;28;20111;-58
2022/05/08 07:10:06;;;;;;;92.07;42.80;;;14.30;99.90;;;;;;5076513;28;20032;-58
2022/05/08 07:12:32;;;;;;;89.72;42.92;;;14.30;99.90;;;;;;5076417;28;20469;-58
2022/05/08 07:14:59;;;;;;;87.25;41.55;;;14.40;99.90;;;;;;5076347;28;20021;-58
2022/05/08 07:17:25;;;;;;;90.95;44.00;;;14.50;99.90;;;;;;5076101;28;20040;-58
2022/05/08 07:19:50;;;;;;;83.63;40.60;;;14.50;99.90;;;;;;5076317;28;20028;-58
2022/05/08 07:22:17;;;;;;;89.97;43.55;;;14.50;99.90;;;;;;5075905;28;20032;-58
2022/05/08 07:24:43;;;;;;;99.13;44.63;;;14.50;99.90;;;;;;5076140;28;20028;-58
2022/05/08 07:27:11;;;;;;;100.30;48.72;;;14.60;99.90;;;;;;5075993;28;20036;-58
2022/05/08 07:29:46;;;;;;;93.07;46.03;;;14.70;99.90;;;;;;5075835;28;20431;-58
2022/05/08 07:32:12;;;;;;;85.97;42.63;;;14.70;99.90;;;;;;5075061;28;20082;-58
2022/05/08 07:37:23;;;;;;;88.75;44.67;;;14.90;99.90;;;;;;5075709;28;20100;-58
2022/05/08 07:39:49;;;;;;;94.35;46.15;;;14.90;99.90;;;;;;5075872;28;20031;-58
2022/05/08 07:42:15;;;;;;;94.32;46.03;;;15.10;99.90;;;;;;5075697;28;20025;-58
2022/05/08 07:44:41;;;;;;;92.35;45.97;;;15.30;99.90;;;;;;5075694;28;20496;-58
2022/05/08 07:47:07;;;;;;;96.75;46.83;;;15.30;99.90;;;;;;5075488;28;20057;-58
2022/05/08 07:49:33;;;;;;;82.30;42.58;;;15.30;99.90;;;;;;5075623;28;20032;-58
2022/05/08 07:51:59;;;;;;;85.70;45.33;;;15.40;99.90;;;;;;5075460;28;20028;-58
2022/05/08 07:54:25;;;;;;;89.57;44.78;;;15.70;99.90;;;;;;5075345;28;20473;-58
2022/05/08 07:56:51;;;;;;;82.15;43.85;;;15.70;99.90;;;;;;5075364;28;20461;-58
2022/05/08 07:59:17;;;;;;;84.75;41.83;;;15.80;99.90;;;;;;5075522;28;20031;-58
2022/05/08 08:01:44;;;;;;;82.72;42.63;;;15.70;99.90;;;;;;5075184;28;20062;-58
2022/05/08 08:04:10;;;;;;;94.20;45.10;;;15.70;99.90;;;;;;5075286;28;20025;-58
2022/05/08 08:06:37;;;;;;;93.78;44.38;;;16.00;99.90;;;;;;5075499;28;20033;-58
2022/05/08 08:09:04;;;;;;;80.32;42.58;;;16.10;99.90;;;;;;5075008;28;20500;-58
2022/05/08 08:11:31;;;;;;;88.13;41.47;;;16.30;99.90;;;;;;5075051;28;20449;-58
2022/05/08 08:13:57;;;;;;;84.10;42.45;;;16.60;99.90;;;;;;5075086;28;20020;-58
2022/05/08 08:16:24;;;;;;;80.63;41.30;;;16.80;99.90;;;;;;5075002;28;20107;-58
2022/05/08 08:18:54;;;;;;;71.63;38.25;;;17.20;99.90;;;;;;5074923;28;20044;-58
2022/05/08 08:21:20;;;;;;;71.63;39.75;;;17.50;99.90;;;;;;5075460;28;20040;-58
2022/05/08 08:23:46;;;;;;;70.13;38.30;;;17.70;99.90;;;;;;5075710;28;20031;-58
2022/05/08 08:26:13;;;;;;;82.50;40.63;;;18.30;99.90;;;;;;5075438;28;20444;-58
2022/05/08 08:28:40;;;;;;;89.10;45.05;;;18.90;99.90;;;;;;5075538;28;20082;-58
2022/05/08 08:31:10;;;;;;;80.32;40.20;;;19.40;99.90;;;;;;5075453;28;20025;-58
2022/05/08 08:33:40;;;;;;;74.57;39.72;;;19.50;99.90;;;;;;5075674;28;20024;-58
2022/05/08 08:36:09;;;;;;;70.13;38.80;;;19.70;99.90;;;;;;5075505;28;20078;-58
2022/05/08 08:38:36;;;;;;;70.22;38.97;;;20.00;99.90;;;;;;5074842;28;20029;-58
2022/05/08 08:41:04;;;;;;;64.20;36.30;;;19.90;99.90;;;;;;5074681;28;20036;-58
2022/05/08 08:49:06;;;;;;;76.78;39.95;;;19.50;99.90;;;;;;5074514;28;20025;-58
2022/05/08 08:51:34;;;;;;;68.18;34.85;;;19.80;99.90;;;;;;5074740;28;20075;-58
2022/05/08 08:54:01;;;;;;;69.18;37.22;;;20.40;99.90;;;;;;5074564;28;20028;-58
2022/05/08 08:56:31;;;;;;;59.83;31.40;;;21.00;99.90;;;;;;5074615;28;20473;-58
2022/05/08 08:58:57;;;;;;;63.78;33.13;;;21.10;99.90;;;;;;5074633;28;20032;-58
2022/05/08 09:01:23;;;;;;;59.88;31.77;;;21.50;99.90;;;;;;5074130;28;20036;-58
2022/05/08 09:03:49;;;;;;;52.40;29.02;;;21.80;99.90;;;;;;5074738;28;20024;-58
2022/05/08 09:06:15;;;;;;;55.83;30.20;;;21.80;98.80;;;;;;5074604;28;20382;-58
2022/05/08 09:08:41;;;;;;;53.28;30.73;;;21.80;99.40;;;;;;5074274;28;20032;-58
2022/05/08 09:11:07;;;;;;;54.53;29.40;;;21.80;98.40;;;;;;5074420;28;20017;-58
2022/05/08 09:13:48;;;;;;;52.75;29.70;;;22.30;99.90;;;;;;5074296;28;20027;-58
2022/05/08 09:16:14;;;;;;;43.33;25.52;;;22.80;99.90;;;;;;5074343;28;20063;-58
2022/05/08 09:18:48;;;;;;;48.58;27.75;;;22.60;98.30;;;;;;5074202;28;20505;-58
2022/05/08 09:24:11;;;;;;;43.30;24.25;;;22.40;99.90;;;;;;5074339;28;20078;-58
2022/05/08 09:26:39;;;;;;;35.53;19.60;;;22.30;99.90;;;;;;5074242;28;20283;-58
2022/05/08 09:29:07;;;;;;;36.63;22.80;;;21.90;92.90;;;;;;5074268;28;20032;-58
2022/05/08 09:31:42;;;;;;;43.45;20.98;;;22.10;97.60;;;;;;5074232;28;20028;-58
2022/05/08 09:34:09;;;;;;;44.25;23.85;;;22.30;96.40;;;;;;5074223;28;20537;-58
2022/05/08 09:36:35;;;;;;;42.70;22.35;;;22.60;94.90;;;;;;5074192;28;20023;-58
2022/05/08 09:39:02;;;;;;;32.25;20.58;;;22.90;93.90;;;;;;5074160;28;20098;-58
2022/05/08 09:41:30;;;;;;;39.88;22.80;;;22.90;92.00;;;;;;5074111;28;20033;-58
2022/05/08 09:44:11;;;;;;;38.85;23.92;;;23.10;93.00;;;;;;5073984;28;20378;-58
2022/05/08 09:46:39;;;;;;;42.85;24.77;;;23.20;95.70;;;;;;5074152;28;20040;-58
2022/05/08 09:49:06;;;;;;;38.38;22.38;;;23.60;93.90;;;;;;5074049;28;20177;-58
2022/05/08 09:51:36;;;;;;;31.10;19.50;;;23.70;97.60;;;;;;5074033;28;20434;-58
2022/05/08 09:54:02;;;;;;;38.03;21.70;;;23.80;78.00;;;;;;5074588;28;20017;-58
2022/05/08 09:56:29;;;;;;;33.88;20.67;;;23.80;84.70;;;;;;5077874;28;20056;-58
2022/05/08 09:58:56;;;;;;;35.10;22.67;;;24.00;83.90;;;;;;5077657;28;20035;-58
2022/05/08 10:01:24;;;;;;;36.70;22.02;;;23.60;91.70;;;;;;5077549;28;20024;-58
2022/05/08 10:03:52;;;;;;;37.15;21.55;;;23.70;92.30;;;;;;5077632;28;20087;-58
2022/05/08 10:06:19;;;;;;;40.45;22.23;;;24.10;91.30;;;;;;5077421;28;20036;-58
2022/05/08 10:08:46;;;;;;;37.20;21.10;;;24.50;86.80;;;;;;5077437;28;20036;-58
2022/05/08 10:14:05;;;;;;;36.83;21.17;;;24.60;92.40;;;;;;5077450;28;20016;-58
2022/05/08 10:17:02;;;;;;;32.35;19.23;;;25.30;90.20;;;;;;5077377;28;20048;-58
2022/05/08 10:19:28;;;;;;;33.58;19.95;;;25.60;81.20;;;;;;5077044;28;20045;-58
2022/05/08 10:21:57;;;;;;;44.58;20.77;;;26.10;88.90;;;;;;5077175;28;20578;-58
2022/05/08 10:24:48;;;;;;;38.72;21.23;;;26.20;77.60;;;;;;5077149;28;20078;-58
2022/05/08 10:27:26;;;;;;;43.60;21.42;;;25.90;74.80;;;;;;5077060;28;20540;-59
2022/05/08 10:29:54;;;;;;;35.20;19.05;;;25.60;76.90;;;;;;5077103;28;20028;-58
2022/05/08 10:35:15;;;;;;;34.47;19.77;;;25.90;79.60;;;;;;5077046;28;20025;-58
2022/05/08 10:37:43;;;;;;;36.00;18.17;;;25.90;69.30;;;;;;5076860;28;20028;-58
2022/05/08 10:40:24;;;;;;;33.28;18.85;;;25.80;70.30;;;;;;5076831;28;20028;-58
2022/05/08 10:42:58;;;;;;;33.45;19.25;;;25.80;66.10;;;;;;5076956;28;20120;-58
2022/05/08 10:45:33;;;;;;;35.65;20.50;;;26.00;68.50;;;;;;5077064;28;20434;-58
2022/05/08 10:48:09;;;;;;;33.17;20.92;;;25.70;69.70;;;;;;5077053;28;20050;-59
2022/05/08 10:50:43;;;;;;;35.13;19.05;;;26.10;79.60;;;;;;5076736;28;20025;-59
2022/05/08 10:53:29;;;;;;;32.45;19.00;;;26.20;86.20;;;;;;5076749;28;20038;-59
2022/05/08 10:56:14;;;;;;;38.28;21.17;;;26.20;67.50;;;;;;5076507;28;20470;-59
2022/05/08 10:58:50;;;;;;;38.65;21.38;;;26.10;67.20;;;;;;5076687;28;20032;-58
2022/05/08 11:01:16;;;;;;;41.60;24.10;;;25.80;67.50;;;;;;5076522;28;20441;-58
2022/05/08 11:03:42;;;;;;;50.78;25.27;;;25.60;71.10;;;;;;5076562;28;20040;-59
2022/05/08 11:06:08;;;;;;;52.55;26.63;;;25.80;74.70;;;;;;5076469;28;20042;-58
2022/05/08 11:08:35;;;;;;;62.83;29.00;;;25.80;87.40;;;;;;5076259;28;20028;-58
2022/05/08 11:11:07;;;;;;;43.95;23.27;;;25.50;78.90;;;;;;5076309;28;20028;-58
2022/05/08 11:13:44;;;;;;;58.85;27.83;;;25.50;76.40;;;;;;5076217;28;20082;-59
2022/05/08 11:16:13;;;;;;;43.58;23.65;;;26.20;85.70;;;;;;5076282;28;20461;-59
2022/05/08 11:18:39;;;;;;;53.15;26.17;;;26.20;64.60;;;;;;5076096;28;20072;-59
2022/05/08 11:21:09;;;;;;;45.55;23.83;;;26.20;69.50;;;;;;5076020;28;20052;-58
2022/05/08 11:23:45;;;;;;;60.70;26.73;;;26.00;71.00;;;;;;5076298;28;20046;-58
2022/05/08 11:26:14;;;;;;;48.10;22.27;;;25.90;68.90;;;;;;5076060;28;20032;-58
2022/05/08 11:28:51;;;;;;;43.97;22.30;;;25.60;70.20;;;;;;5075893;28;20032;-58
2022/05/08 11:31:19;;;;;;;34.50;17.27;;;25.80;74.30;;;;;;5076050;28;20456;-58
2022/05/08 11:36:36;;;;;;;31.95;14.52;;;26.20;58.80;;;;;;5075812;28;20024;-59
2022/05/08 11:39:05;;;;;;;30.20;17.00;;;26.80;70.40;;;;;;5076012;28;20056;-59
2022/05/08 11:41:36;;;;;;;24.15;13.05;;;26.80;63.40;;;;;;5075868;28;20032;-58
2022/05/08 11:44:25;;;;;;;22.58;12.52;;;26.40;56.40;;;;;;5075799;28;20040;-58
2022/05/08 11:46:56;;;;;;;22.63;12.30;;;26.20;59.30;;;;;;5075696;28;20033;-58
2022/05/08 11:49:23;;;;;;;18.45;10.25;;;26.20;60.70;;;;;;5075646;28;20028;-58
2022/05/08 11:51:54;;;;;;;14.05;8.90;;;26.00;60.00;;;;;;5075680;28;20021;-58
2022/05/08 11:54:38;;;;;;;13.40;8.88;;;25.70;58.20;;;;;;5075595;28;20024;-58
2022/05/08 11:57:18;;;;;;;15.25;9.35;;;25.40;71.70;;;;;;5075556;28;20032;-58
2022/05/08 11:59:46;;;;;;;19.38;9.55;;;25.00;76.00;;;;;;5075515;28;20031;-58
2022/05/08 12:02:13;;;;;;;14.75;9.20;;;25.20;67.80;;;;;;5075466;28;20099;-58
2022/05/08 12:04:41;;;;;;;16.63;10.25;;;25.40;67.10;;;;;;5075384;28;20486;-58
2022/05/08 12:07:08;;;;;;;24.75;12.18;;;25.90;67.60;;;;;;5075143;28;20043;-58
2022/05/08 12:09:49;;;;;;;19.58;11.63;;;25.80;57.80;;;;;;5075442;28;20024;-58
2022/05/08 12:12:35;;;;;;;17.55;9.80;;;25.70;56.90;;;;;;5075232;28;20025;-58
2022/05/08 12:15:08;;;;;;;14.38;8.30;;;25.60;56.00;;;;;;5075332;28;20035;-58
2022/05/08 12:17:54;;;;;;;37.25;18.10;;;25.50;53.00;;;;;;5074416;28;20501;-58
2022/05/08 12:20:34;;;;;;;34.92;16.38;;;25.40;80.90;;;;;;5075221;28;20047;-58
2022/05/08 12:23:05;;;;;;;35.38;18.42;;;26.20;71.50;;;;;;5074956;28;20024;-58
2022/05/08 12:25:33;;;;;;;25.08;13.90;;;26.30;62.00;;;;;;5074859;28;20032;-58
2022/05/08 12:27:59;;;;;;;30.67;14.35;;;26.20;62.60;;;;;;5074872;28;20056;-58
2022/05/08 12:30:25;;;;;;;29.38;14.77;;;26.20;60.60;;;;;;5074861;28;20461;-58
2022/05/08 12:32:51;;;;;;;30.55;14.40;;;26.30;57.90;;;;;;5074699;28;20029;-58
2022/05/08 12:35:19;;;;;;;34.13;14.82;;;26.40;61.00;;;;;;5075072;28;20455;-58
2022/05/08 12:37:47;;;;;;;35.08;15.77;;;26.80;63.90;;;;;;5074832;28;20118;-58
2022/05/08 12:40:15;;;;;;;29.48;15.68;;;27.10;57.40;;;;;;5074833;28;20021;-58
2022/05/08 12:42:42;;;;;;;26.13;13.80;;;26.70;57.60;;;;;;5074719;28;20473;-58
2022/05/08 12:45:09;;;;;;;22.25;12.98;;;26.60;58.70;;;;;;5074647;28;20027;-58
2022/05/08 12:47:35;;;;;;;21.05;8.23;;;26.50;57.60;;;;;;5074698;28;20031;-58
2022/05/08 12:50:01;;;;;;;10.63;6.57;;;26.30;55.30;;;;;;5074638;28;20025;-58
2022/05/08 12:52:27;;;;;;;16.92;6.10;;;26.10;56.90;;;;;;5074695;28;20047;-58
2022/05/08 12:54:53;;;;;;;11.15;5.80;;;25.80;52.50;;;;;;5074583;28;20035;-58
2022/05/08 13:00:04;;;;;;;32.65;17.83;;;25.20;55.90;;;;;;5074545;28;20052;-58
2022/05/08 13:02:30;;;;;;;28.25;14.88;;;25.00;56.60;;;;;;5074446;28;20033;-58
2022/05/08 13:04:56;;;;;;;16.38;7.22;;;24.80;60.20;;;;;;5074344;28;20021;-58
2022/05/08 13:07:22;;;;;;;12.98;5.75;;;24.50;60.10;;;;;;5074323;28;20025;-58
2022/05/08 13:09:49;;;;;;;11.32;5.10;;;24.40;65.30;;;;;;5074356;28;20120;-58
2022/05/08 13:12:16;;;;;;;11.32;6.13;;;24.60;59.50;;;;;;5074364;28;20056;-58
2022/05/08 13:14:42;;;;;;;11.73;6.13;;;25.10;59.60;;;;;;5074376;28;20028;-58
2022/05/08 13:17:08;;;;;;;12.88;5.50;;;25.40;52.70;;;;;;5074350;28;20031;-58
2022/05/08 13:19:35;;;;;;;11.98;5.43;;;25.40;53.80;;;;;;5074319;28;20143;-58